Terminal Aerodrome Forecast
Issued by NWS

Home | Current Version | Previous Version | Text Only | Print | Product List | Glossary On
Versions: 1 2 3 4 5 6 7 8 9 10 11 12 13 14 15 16 17
000
FTUS43 KDTX 172017 AAA
TAFMBS
TAF AMD
KMBS 172017Z 1720/1818 33005KT 1SM BR OVC003
      TEMPO 1720/1721 1/2SM FG OVC002
     FM172300 29005KT 2SM BR OVC005
     FM180600 26005KT 5SM BR OVC010
     FM181400 26006KT 5SM BR OVC015=

USA.gov is the U.S. government's official web portal to all federal, state and local government web resources and services.